Time;durP1;ratioP1;P1;durP2;ratioP2;P2;SDS_P1;SDS_P2;PMS_P1;PMS_P2;Temp;Humidity;BMP_temperature;BMP_pressure;BME280_temperature;BME280_humidity;BME280_pressure;Samples;Min_cycle;Max_cycle;Signal;HPM_P1;HPM_P2
2022/11/27 00:01:23;;;;;;;25.00;14.30;;;;;;;;;;5075669;28;20036;-76
2022/11/27 00:03:49;;;;;;;21.25;14.32;;;;;;;;;;5076047;28;20063;-76
2022/11/27 00:06:16;;;;;;;23.95;14.43;;;;;;;;;;5093768;28;20068;-76
2022/11/27 00:08:43;;;;;;;21.23;14.95;;;;;;;;;;5093960;28;20032;-74
2022/11/27 00:11:13;;;;;;;26.52;15.98;;;;;;;;;;5094232;28;20119;-74
2022/11/27 00:13:39;;;;;;;26.75;16.75;;;;;;;;;;5075940;28;20431;-73
2022/11/27 00:16:04;;;;;;;26.73;16.58;;;;;;;;;;5075600;28;20016;-73
2022/11/27 00:18:30;;;;;;;25.35;16.83;;;;;;;;;;5094017;28;20032;-74
2022/11/27 00:20:56;;;;;;;30.15;16.92;;;;;;;;;;5076145;28;20334;-75
2022/11/27 00:23:22;;;;;;;25.98;16.33;;;;;;;;;;5094147;28;20081;-74
2022/11/27 00:25:51;;;;;;;26.58;17.17;;;;;;;;;;5094127;28;20028;-75
2022/11/27 00:28:16;;;;;;;26.40;16.17;;;;;;;;;;5093843;28;20028;-75
2022/11/27 00:30:41;;;;;;;25.80;15.98;;;;;;;;;;5093943;28;20442;-75
2022/11/27 00:33:07;;;;;;;24.98;15.40;;;;;;;;;;5094095;28;20027;-74
2022/11/27 00:35:32;;;;;;;26.45;16.67;;;;;;;;;;5093848;28;20461;-75
2022/11/27 00:37:57;;;;;;;27.88;17.65;;;;;;;;;;5093580;28;20035;-74
2022/11/27 00:40:23;;;;;;;32.50;18.58;;;;;;;;;;5093795;28;20028;-74
2022/11/27 00:42:48;;;;;;;30.48;18.70;;;;;;;;;;5093542;28;20043;-70
2022/11/27 00:45:13;;;;;;;28.35;17.70;;;;;;;;;;5093604;28;20020;-74
2022/11/27 00:47:39;;;;;;;28.83;18.92;;;;;;;;;;5094726;28;20053;-73
2022/11/27 00:50:04;;;;;;;30.02;18.80;;;;;;;;;;5097391;28;20020;-74
2022/11/27 00:52:30;;;;;;;26.88;17.30;;;;;;;;;;5097689;28;20373;-74
2022/11/27 00:54:56;;;;;;;28.85;17.98;;;;;;;;;;5102933;22;20090;-73
2022/11/27 00:57:21;;;;;;;29.20;18.23;;;;;;;;;;5097192;28;20462;-75
2022/11/27 00:59:47;;;;;;;32.47;21.00;;;;;;;;;;5078809;28;20024;-74
2022/11/27 01:02:12;;;;;;;30.02;19.65;;;;;;;;;;5096918;28;20043;-74
2022/11/27 01:04:37;;;;;;;33.10;19.80;;;;;;;;;;5096961;28;20024;-75
2022/11/27 01:07:03;;;;;;;33.75;19.45;;;;;;;;;;5096870;28;20551;-74
2022/11/27 01:09:28;;;;;;;34.17;20.52;;;;;;;;;;5096797;28;20062;-75
2022/11/27 01:11:54;;;;;;;35.67;21.60;;;;;;;;;;5096806;28;20492;-75
2022/11/27 01:14:19;;;;;;;42.53;23.67;;;;;;;;;;5096759;28;20020;-75
2022/11/27 01:16:45;;;;;;;44.17;24.00;;;;;;;;;;5078654;28;20024;-74
2022/11/27 01:19:11;;;;;;;38.83;21.70;;;;;;;;;;5096684;28;20020;-76
2022/11/27 01:21:36;;;;;;;35.85;21.20;;;;;;;;;;5096691;28;20525;-75
2022/11/27 01:24:02;;;;;;;32.05;20.05;;;;;;;;;;5096559;28;20032;-75
2022/11/27 01:26:28;;;;;;;34.00;21.17;;;;;;;;;;5096535;28;20050;-75
2022/11/27 01:28:54;;;;;;;38.28;20.40;;;;;;;;;;5096341;28;20020;-75
2022/11/27 01:31:21;;;;;;;50.83;25.10;;;;;;;;;;5096452;28;20032;-75
2022/11/27 01:33:50;;;;;;;48.83;23.63;;;;;;;;;;5096335;28;20020;-75
2022/11/27 01:36:16;;;;;;;39.28;21.05;;;;;;;;;;5096325;28;20024;-74
2022/11/27 01:38:41;;;;;;;33.20;18.40;;;;;;;;;;5078170;28;20035;-73
2022/11/27 01:41:11;;;;;;;34.38;17.77;;;;;;;;;;5096191;28;20036;-75
2022/11/27 01:43:40;;;;;;;28.88;17.38;;;;;;;;;;5096243;28;20032;-76
2022/11/27 01:46:17;;;;;;;28.60;17.65;;;;;;;;;;5096094;28;20539;-75
2022/11/27 01:48:44;;;;;;;34.13;18.98;;;;;;;;;;5096040;28;20024;-75
2022/11/27 01:51:10;;;;;;;39.53;21.70;;;;;;;;;;5096137;28;20016;-75
2022/11/27 01:53:35;;;;;;;33.58;21.17;;;;;;;;;;5077673;28;20043;-74
2022/11/27 01:56:01;;;;;;;31.52;20.15;;;;;;;;;;5095705;28;20040;-76
2022/11/27 01:58:27;;;;;;;45.35;24.98;;;;;;;;;;5095813;28;20035;-75
2022/11/27 02:00:53;;;;;;;43.35;24.60;;;;;;;;;;5095274;28;20440;-75
2022/11/27 02:03:18;;;;;;;42.50;24.40;;;;;;;;;;5095844;28;20042;-75
2022/11/27 02:05:44;;;;;;;38.22;20.63;;;;;;;;;;5095672;28;20047;-75
2022/11/27 02:08:11;;;;;;;33.60;19.63;;;;;;;;;;5095561;28;20024;-75
2022/11/27 02:10:36;;;;;;;34.90;19.88;;;;;;;;;;5095600;28;20008;-74
2022/11/27 02:13:04;;;;;;;30.95;19.70;;;;;;;;;;5095700;28;20028;-75
2022/11/27 02:15:33;;;;;;;34.47;20.23;;;;;;;;;;5077268;28;20444;-74
2022/11/27 02:18:11;;;;;;;35.00;20.58;;;;;;;;;;5095567;28;20138;-76
2022/11/27 02:20:55;;;;;;;35.80;21.23;;;;;;;;;;5095464;28;20032;-75
2022/11/27 02:23:28;;;;;;;40.45;21.70;;;;;;;;;;5095487;28;20039;-75
2022/11/27 02:26:15;;;;;;;40.35;20.75;;;;;;;;;;5077237;28;20105;-75
2022/11/27 02:28:55;;;;;;;96.93;45.33;;;;;;;;;;5077067;28;20042;-74
2022/11/27 02:31:21;;;;;;;;;;;;;;;;;;5077486;28;20115;-73
2022/11/27 02:33:49;;;;;;;43.65;22.15;;;;;;;;;;5095337;28;20049;-73
2022/11/27 02:36:18;;;;;;;34.67;20.27;;;;;;;;;;5095105;28;20028;-73
2022/11/27 02:38:49;;;;;;;37.45;23.30;;;;;;;;;;5095125;28;20474;-73
2022/11/27 02:41:19;;;;;;;33.10;19.77;;;;;;;;;;5094925;28;20070;-73
2022/11/27 02:43:46;;;;;;;33.97;17.48;;;;;;;;;;5076961;28;20082;-73
2022/11/27 02:46:12;;;;;;;30.60;18.23;;;;;;;;;;5094935;28;20122;-74
2022/11/27 02:48:48;;;;;;;27.13;17.08;;;;;;;;;;5094843;28;20020;-74
2022/11/27 02:51:15;;;;;;;28.40;18.05;;;;;;;;;;5076621;28;20024;-74
2022/11/27 02:53:49;;;;;;;28.17;16.95;;;;;;;;;;5095022;28;20024;-74
2022/11/27 02:56:16;;;;;;;28.83;17.35;;;;;;;;;;5094524;28;20044;-74
2022/11/27 02:58:48;;;;;;;28.42;17.00;;;;;;;;;;5094856;28;20095;-74
2022/11/27 03:01:14;;;;;;;27.27;16.98;;;;;;;;;;5076430;28;20182;-74
2022/11/27 03:03:45;;;;;;;29.83;17.35;;;;;;;;;;5094561;28;20053;-74
2022/11/27 03:06:10;;;;;;;;;;;;;;;;;;5094998;28;20520;-75
2022/11/27 03:08:39;;;;;;;28.43;16.27;;;;;;;;;;5076211;28;19994;-75
2022/11/27 03:11:05;;;;;;;24.52;15.77;;;;;;;;;;5093595;28;20768;-76
2022/11/27 03:13:39;;;;;;;24.77;15.52;;;;;;;;;;5094453;28;20382;-75
2022/11/27 03:16:07;;;;;;;25.67;15.60;;;;;;;;;;5076331;28;20454;-76
2022/11/27 03:18:38;;;;;;;27.23;15.98;;;;;;;;;;5094453;28;20478;-76
2022/11/27 03:21:08;;;;;;;27.70;16.42;;;;;;;;;;5094559;28;20031;-76
2022/11/27 03:23:33;;;;;;;28.73;17.00;;;;;;;;;;5094340;28;20031;-76
2022/11/27 03:25:58;;;;;;;29.30;17.00;;;;;;;;;;5094250;28;20035;-76
2022/11/27 03:28:25;;;;;;;26.50;16.00;;;;;;;;;;5094092;28;20103;-76
2022/11/27 03:30:51;;;;;;;27.42;16.13;;;;;;;;;;5094239;28;20154;-76
2022/11/27 03:33:17;;;;;;;30.50;16.80;;;;;;;;;;5094117;28;20062;-75
2022/11/27 03:35:42;;;;;;;26.02;16.25;;;;;;;;;;5094030;28;20024;-77
2022/11/27 03:38:07;;;;;;;25.17;16.38;;;;;;;;;;5075919;28;20434;-75
2022/11/27 03:40:41;;;;;;;28.08;16.02;;;;;;;;;;5094170;28;20055;-76
2022/11/27 03:43:17;;;;;;;31.90;17.25;;;;;;;;;;5076456;28;20042;-74
2022/11/27 03:45:56;;;;;;;28.88;17.92;;;;;;;;;;5093988;28;20036;-73
2022/11/27 03:48:29;;;;;;;31.52;18.60;;;;;;;;;;5093813;28;20032;-75
2022/11/27 03:51:06;;;;;;;28.42;18.08;;;;;;;;;;5093939;28;20032;-73
2022/11/27 03:53:40;;;;;;;28.40;17.92;;;;;;;;;;5094131;28;20103;-74
2022/11/27 03:56:16;;;;;;;28.20;17.65;;;;;;;;;;5075842;28;20044;-75
2022/11/27 03:58:46;;;;;;;29.77;17.58;;;;;;;;;;5093759;28;20024;-75
2022/11/27 04:01:13;;;;;;;31.27;17.95;;;;;;;;;;5093638;28;20032;-74
2022/11/27 04:03:38;;;;;;;32.05;19.58;;;;;;;;;;5093716;28;20028;-75
2022/11/27 04:06:04;;;;;;;32.53;20.35;;;;;;;;;;5093766;28;20027;-75
2022/11/27 04:08:29;;;;;;;34.78;20.35;;;;;;;;;;5093599;28;20032;-75
2022/11/27 04:10:54;;;;;;;30.67;19.45;;;;;;;;;;5093690;28;20043;-75
2022/11/27 04:13:20;;;;;;;32.50;19.38;;;;;;;;;;5093715;28;20024;-74
2022/11/27 04:15:45;;;;;;;32.65;19.63;;;;;;;;;;5093606;28;20073;-74
2022/11/27 04:18:11;;;;;;;39.95;23.20;;;;;;;;;;5075512;28;20039;-73
2022/11/27 04:20:36;;;;;;;33.90;19.50;;;;;;;;;;5093616;28;20081;-72
2022/11/27 04:23:02;;;;;;;29.90;17.58;;;;;;;;;;5095493;28;20059;-74
2022/11/27 04:25:27;;;;;;;29.05;16.75;;;;;;;;;;5097597;28;20359;-73
2022/11/27 04:27:52;;;;;;;29.45;17.38;;;;;;;;;;5079533;28;20421;-73
2022/11/27 04:30:18;;;;;;;30.40;17.45;;;;;;;;;;5097544;28;20097;-73
2022/11/27 04:32:43;;;;;;;31.02;17.60;;;;;;;;;;5097595;28;20031;-73
2022/11/27 04:35:09;;;;;;;28.95;17.45;;;;;;;;;;5097485;28;20375;-74
2022/11/27 04:37:34;;;;;;;28.35;16.90;;;;;;;;;;5097427;28;20034;-74
2022/11/27 04:40:00;;;;;;;27.30;15.85;;;;;;;;;;5079205;28;20016;-75
2022/11/27 04:42:25;;;;;;;28.88;16.98;;;;;;;;;;5097392;28;20055;-76
2022/11/27 04:44:50;;;;;;;30.38;17.83;;;;;;;;;;5097287;28;20099;-76
2022/11/27 04:47:16;;;;;;;30.42;19.35;;;;;;;;;;5079045;28;20488;-75
2022/11/27 04:49:41;;;;;;;28.65;18.20;;;;;;;;;;5097254;28;20020;-76
2022/11/27 04:52:07;;;;;;;32.28;18.48;;;;;;;;;;5078546;28;20032;-76
2022/11/27 04:54:32;;;;;;;29.83;17.58;;;;;;;;;;5097056;28;20009;-75
2022/11/27 04:56:58;;;;;;;29.05;18.15;;;;;;;;;;5097084;28;20119;-76
2022/11/27 04:59:23;;;;;;;29.38;18.10;;;;;;;;;;5079032;28;20059;-72
2022/11/27 05:01:48;;;;;;;22.25;15.40;;;;;;;;;;5096768;28;20034;-71
2022/11/27 05:04:14;;;;;;;21.65;14.40;;;;;;;;;;5096492;28;20023;-71
2022/11/27 05:06:39;;;;;;;28.02;16.83;;;;;;;;;;5097238;28;20078;-71
2022/11/27 05:09:05;;;;;;;27.70;17.92;;;;;;;;;;5097015;28;20016;-71
2022/11/27 05:11:30;;;;;;;29.63;17.05;;;;;;;;;;5078279;28;20066;-70
2022/11/27 05:14:15;;;;;;;24.33;17.17;;;;;;;;;;5097145;28;20032;-71
2022/11/27 05:16:47;;;;;;;29.52;18.20;;;;;;;;;;5079129;28;20028;-70
2022/11/27 05:19:13;;;;;;;30.27;19.67;;;;;;;;;;5097149;28;20127;-70
2022/11/27 05:21:39;;;;;;;24.30;16.63;;;;;;;;;;5096858;28;20138;-71
2022/11/27 05:24:04;;;;;;;25.98;17.45;;;;;;;;;;5096395;28;20077;-72
2022/11/27 05:26:30;;;;;;;26.58;16.85;;;;;;;;;;5078356;28;20446;-74
2022/11/27 05:28:55;;;;;;;28.67;17.80;;;;;;;;;;5096366;28;20497;-71
2022/11/27 05:31:21;;;;;;;28.60;18.88;;;;;;;;;;5096868;28;20474;-66
2022/11/27 05:33:46;;;;;;;25.65;18.67;;;;;;;;;;5095677;28;20086;-70
2022/11/27 05:36:12;;;;;;;34.22;21.15;;;;;;;;;;5096671;28;20073;-69
2022/11/27 05:38:38;;;;;;;75.85;34.45;;;;;;;;;;5096404;28;20024;-68
2022/11/27 05:41:03;;;;;;;44.30;24.10;;;;;;;;;;5078506;28;20027;-70
2022/11/27 05:43:29;;;;;;;34.53;20.77;;;;;;;;;;5096180;28;20032;-70
2022/11/27 05:45:54;;;;;;;32.60;18.15;;;;;;;;;;5095542;28;20024;-71
2022/11/27 05:48:20;;;;;;;33.90;20.63;;;;;;;;;;5077914;28;20036;-69
2022/11/27 05:50:45;;;;;;;64.43;30.77;;;;;;;;;;5095997;28;20020;-69
2022/11/27 05:53:12;;;;;;;53.97;27.50;;;;;;;;;;5096140;28;20049;-70
2022/11/27 05:55:37;;;;;;;40.47;22.10;;;;;;;;;;5077877;28;20381;-70
2022/11/27 05:58:03;;;;;;;78.40;40.47;;;;;;;;;;5096370;28;20032;-70
2022/11/27 06:00:28;;;;;;;35.50;22.58;;;;;;;;;;5096085;28;20032;-69
2022/11/27 06:02:54;;;;;;;22.52;14.15;;;;;;;;;;5077295;28;20123;-69
2022/11/27 06:05:19;;;;;;;20.63;13.38;;;;;;;;;;5095762;28;20382;-69
2022/11/27 06:07:45;;;;;;;20.77;13.35;;;;;;;;;;5103094;22;20136;-75
2022/11/27 06:10:10;;;;;;;19.20;12.73;;;;;;;;;;5095380;28;20039;-75
2022/11/27 06:12:35;;;;;;;19.58;12.65;;;;;;;;;;5095579;28;20059;-74
2022/11/27 06:15:01;;;;;;;19.52;12.85;;;;;;;;;;5095505;28;20020;-75
2022/11/27 06:17:26;;;;;;;19.23;12.45;;;;;;;;;;5095467;28;20104;-75
2022/11/27 06:19:51;;;;;;;19.00;12.90;;;;;;;;;;5095423;28;20028;-73
2022/11/27 06:22:17;;;;;;;20.08;13.23;;;;;;;;;;5095275;28;20032;-75
2022/11/27 06:24:42;;;;;;;16.98;12.45;;;;;;;;;;5095448;28;20359;-74
2022/11/27 06:27:08;;;;;;;21.30;14.55;;;;;;;;;;5095279;28;20073;-74
2022/11/27 06:29:33;;;;;;;34.15;20.92;;;;;;;;;;5095297;28;20020;-75
2022/11/27 06:31:58;;;;;;;32.42;20.30;;;;;;;;;;5095304;28;20053;-74
2022/11/27 06:34:24;;;;;;;28.55;19.05;;;;;;;;;;5095283;28;20027;-75
2022/11/27 06:36:50;;;;;;;29.13;18.88;;;;;;;;;;5094851;28;20035;-75
2022/11/27 06:39:15;;;;;;;25.52;17.02;;;;;;;;;;5095294;28;20020;-76
2022/11/27 06:41:41;;;;;;;23.88;15.40;;;;;;;;;;5095168;28;20032;-75
2022/11/27 06:44:06;;;;;;;17.60;11.82;;;;;;;;;;5076556;28;20032;-75
2022/11/27 06:46:32;;;;;;;18.67;11.93;;;;;;;;;;5094758;28;20020;-75
2022/11/27 06:48:57;;;;;;;19.95;13.00;;;;;;;;;;5094919;28;20534;-75
2022/11/27 06:51:25;;;;;;;16.40;11.15;;;;;;;;;;5094685;28;20513;-75
2022/11/27 06:53:51;;;;;;;17.55;11.18;;;;;;;;;;5094750;28;20028;-75
2022/11/27 06:56:20;;;;;;;17.50;11.95;;;;;;;;;;5093549;28;20061;-75
2022/11/27 06:58:49;;;;;;;17.08;10.88;;;;;;;;;;5092887;28;20028;-75
2022/11/27 07:01:15;;;;;;;16.10;11.45;;;;;;;;;;5092650;28;20020;-75
2022/11/27 07:03:41;;;;;;;18.85;12.98;;;;;;;;;;5092398;28;20024;-75
2022/11/27 07:06:07;;;;;;;17.70;12.85;;;;;;;;;;5092654;28;20020;-74
2022/11/27 07:08:34;;;;;;;29.13;18.50;;;;;;;;;;5092366;28;20551;-75
2022/11/27 07:11:00;;;;;;;30.02;19.80;;;;;;;;;;5093630;28;20051;-75
2022/11/27 07:13:37;;;;;;;23.63;14.88;;;;;;;;;;5094336;28;20374;-75
2022/11/27 07:16:04;;;;;;;29.67;19.38;;;;;;;;;;5094381;28;20036;-76
2022/11/27 07:18:30;;;;;;;20.33;14.00;;;;;;;;;;5093868;28;20707;-76
2022/11/27 07:20:56;;;;;;;19.33;13.20;;;;;;;;;;5094908;28;20028;-76
2022/11/27 07:23:22;;;;;;;20.83;13.95;;;;;;;;;;5094452;28;20023;-77
2022/11/27 07:25:47;;;;;;;20.98;13.43;;;;;;;;;;5094866;28;20389;-75
2022/11/27 07:28:13;;;;;;;18.92;12.73;;;;;;;;;;5076388;28;20020;-76
2022/11/27 07:30:38;;;;;;;18.30;12.63;;;;;;;;;;5076977;28;20048;-77
2022/11/27 07:33:03;;;;;;;19.83;13.25;;;;;;;;;;5093947;28;20415;-77
2022/11/27 07:35:29;;;;;;;17.77;13.60;;;;;;;;;;5094067;28;20039;-77
2022/11/27 07:37:54;;;;;;;18.38;13.02;;;;;;;;;;5075836;28;20027;-76
2022/11/27 07:40:20;;;;;;;18.65;13.52;;;;;;;;;;5093984;28;20085;-76
2022/11/27 07:42:45;;;;;;;16.38;12.45;;;;;;;;;;5093970;28;20048;-76
2022/11/27 07:45:10;;;;;;;17.63;12.93;;;;;;;;;;5093611;28;20024;-75
2022/11/27 07:47:36;;;;;;;17.88;12.93;;;;;;;;;;5093842;28;20016;-77
2022/11/27 07:50:02;;;;;;;18.25;13.45;;;;;;;;;;5093579;28;20077;-75
2022/11/27 07:52:27;;;;;;;20.08;12.48;;;;;;;;;;5093947;28;20024;-76
2022/11/27 07:54:53;;;;;;;18.17;12.70;;;;;;;;;;5075674;28;20026;-76
2022/11/27 07:57:18;;;;;;;17.95;12.70;;;;;;;;;;5074877;28;20020;-75
2022/11/27 07:59:44;;;;;;;17.08;12.43;;;;;;;;;;5093572;28;20539;-75
2022/11/27 08:02:12;;;;;;;20.70;13.50;;;;;;;;;;5094565;28;20494;-78
2022/11/27 08:04:38;;;;;;;21.42;13.75;;;;;;;;;;5094185;28;20036;-77
2022/11/27 08:07:03;;;;;;;22.38;14.27;;;;;;;;;;5094083;28;20024;-77
2022/11/27 08:09:29;;;;;;;23.05;14.82;;;;;;;;;;5093629;28;20042;-76
2022/11/27 08:11:54;;;;;;;21.63;13.88;;;;;;;;;;5093555;28;20035;-75
2022/11/27 08:14:20;;;;;;;21.63;15.30;;;;;;;;;;5094030;28;20024;-76
2022/11/27 08:16:45;;;;;;;26.23;17.48;;;;;;;;;;5092466;28;20066;-77
2022/11/27 08:19:10;;;;;;;24.05;16.73;;;;;;;;;;5091621;28;20471;-78
2022/11/27 08:21:36;;;;;;;20.92;14.43;;;;;;;;;;5091515;28;20031;-77
2022/11/27 08:24:01;;;;;;;23.35;15.20;;;;;;;;;;5091487;28;20036;-77
2022/11/27 08:26:27;;;;;;;27.80;17.88;;;;;;;;;;5091398;28;20024;-75
2022/11/27 08:28:53;;;;;;;26.08;16.67;;;;;;;;;;5091670;28;20039;-74
2022/11/27 08:31:22;;;;;;;27.48;20.42;;;;;;;;;;5074153;28;20030;-78
2022/11/27 08:33:48;;;;;;;16.58;11.98;;;;;;;;;;5091420;28;20024;-76
2022/11/27 08:36:13;;;;;;;15.40;11.60;;;;;;;;;;5092015;28;20016;-75
2022/11/27 08:38:39;;;;;;;15.88;11.45;;;;;;;;;;5091385;28;20071;-75
2022/11/27 08:41:05;;;;;;;14.70;11.48;;;;;;;;;;5091559;28;20032;-76
2022/11/27 08:43:30;;;;;;;16.38;11.60;;;;;;;;;;5092722;28;20075;-76
2022/11/27 08:45:56;;;;;;;16.90;12.35;;;;;;;;;;5093298;28;20036;-76
2022/11/27 08:48:22;;;;;;;16.52;12.43;;;;;;;;;;5093259;28;20036;-78
2022/11/27 08:50:48;;;;;;;16.75;12.40;;;;;;;;;;5093313;28;20016;-77
2022/11/27 08:53:14;;;;;;;36.95;22.20;;;;;;;;;;5093241;28;20478;-74
2022/11/27 08:55:39;;;;;;;23.42;15.40;;;;;;;;;;5093270;28;20020;-77
2022/11/27 08:58:05;;;;;;;27.42;19.63;;;;;;;;;;5100798;22;20048;-72
2022/11/27 09:00:31;;;;;;;24.42;17.95;;;;;;;;;;5075144;28;20478;-72
2022/11/27 09:02:59;;;;;;;374.83;229.38;;;;;;;;;;5075489;28;20043;-71
2022/11/27 09:05:25;;;;;;;59.88;39.17;;;;;;;;;;5075140;28;20120;-72
2022/11/27 09:07:51;;;;;;;280.13;124.78;;;;;;;;;;5093045;28;20455;-71
2022/11/27 09:10:16;;;;;;;112.53;56.60;;;;;;;;;;5096745;28;20073;-72
2022/11/27 09:12:43;;;;;;;236.82;125.57;;;;;;;;;;5096812;28;20039;-72
2022/11/27 09:15:09;;;;;;;336.92;186.55;;;;;;;;;;5078557;28;20023;-72
2022/11/27 09:17:34;;;;;;;144.27;78.60;;;;;;;;;;5078568;28;20020;-72
2022/11/27 09:20:00;;;;;;;91.38;50.65;;;;;;;;;;5096674;28;20065;-72
2022/11/27 09:22:25;;;;;;;338.88;220.52;;;;;;;;;;5061837;28;20036;-72
2022/11/27 09:24:51;;;;;;;186.23;118.25;;;;;;;;;;5096855;28;20037;-72
2022/11/27 09:27:17;;;;;;;38.83;25.83;;;;;;;;;;5096516;28;20032;-72
2022/11/27 09:29:42;;;;;;;56.20;35.03;;;;;;;;;;5078286;28;20020;-72
2022/11/27 09:32:07;;;;;;;72.85;43.70;;;;;;;;;;5096744;28;20028;-72
2022/11/27 09:34:33;;;;;;;47.03;28.80;;;;;;;;;;5078290;28;20156;-72
2022/11/27 09:36:59;;;;;;;36.63;26.30;;;;;;;;;;5096362;28;20024;-72
2022/11/27 09:39:29;;;;;;;57.95;35.08;;;;;;;;;;5096551;28;20024;-72
2022/11/27 09:41:57;;;;;;;211.13;118.15;;;;;;;;;;5078143;28;20028;-72
2022/11/27 09:44:38;;;;;;;68.18;38.78;;;;;;;;;;5088290;28;20418;-72
2022/11/27 09:47:09;;;;;;;29.17;18.23;;;;;;;;;;5096747;28;20043;-71
2022/11/27 09:49:38;;;;;;;31.73;20.45;;;;;;;;;;5096056;28;20028;-72
2022/11/27 09:52:06;;;;;;;140.35;77.68;;;;;;;;;;5096045;28;20012;-72
2022/11/27 09:54:34;;;;;;;120.95;73.57;;;;;;;;;;5096315;28;20099;-72
2022/11/27 09:57:01;;;;;;;24.33;17.73;;;;;;;;;;5095785;28;20040;-71
2022/11/27 09:59:29;;;;;;;20.55;14.30;;;;;;;;;;5096261;28;20105;-72
2022/11/27 10:01:55;;;;;;;18.35;12.27;;;;;;;;;;5096286;28;20103;-71
2022/11/27 10:04:21;;;;;;;20.00;14.45;;;;;;;;;;5095822;28;20445;-71
2022/11/27 10:07:06;;;;;;;20.20;13.40;;;;;;;;;;5077715;28;20447;-72
2022/11/27 10:09:32;;;;;;;22.17;14.27;;;;;;;;;;5077056;28;20097;-72
2022/11/27 10:12:12;;;;;;;29.45;16.67;;;;;;;;;;5096240;28;20019;-71
2022/11/27 10:14:56;;;;;;;33.00;18.95;;;;;;;;;;5095907;28;20028;-72
2022/11/27 10:17:24;;;;;;;30.88;20.10;;;;;;;;;;5077815;28;20029;-72
2022/11/27 10:20:18;;;;;;;25.67;16.15;;;;;;;;;;5095110;28;20065;-71
2022/11/27 10:22:47;;;;;;;26.65;15.23;;;;;;;;;;5085771;28;20040;-78
2022/11/27 10:25:17;;;;;;;25.25;15.70;;;;;;;;;;5095699;28;20024;-77
2022/11/27 10:27:46;;;;;;;22.50;14.75;;;;;;;;;;5095680;28;20055;-77
2022/11/27 10:30:14;;;;;;;19.10;13.80;;;;;;;;;;5095601;28;20466;-78
2022/11/27 10:32:40;;;;;;;17.88;11.85;;;;;;;;;;5095262;28;20020;-76
2022/11/27 10:35:19;;;;;;;13.68;10.52;;;;;;;;;;5095506;28;20020;-76
2022/11/27 10:37:46;;;;;;;13.63;9.80;;;;;;;;;;5095449;28;20036;-77
2022/11/27 10:40:12;;;;;;;15.02;10.30;;;;;;;;;;5077058;28;20030;-77
2022/11/27 10:42:49;;;;;;;14.18;9.82;;;;;;;;;;5095285;28;20118;-78
2022/11/27 10:45:23;;;;;;;12.85;9.82;;;;;;;;;;5095299;28;20028;-75
2022/11/27 10:47:48;;;;;;;14.10;10.50;;;;;;;;;;5095161;28;20032;-78
2022/11/27 10:50:15;;;;;;;14.48;10.73;;;;;;;;;;5077072;28;20038;-76
2022/11/27 10:52:48;;;;;;;17.17;11.43;;;;;;;;;;5077121;28;20538;-76
2022/11/27 10:55:17;;;;;;;18.90;11.80;;;;;;;;;;5094834;28;20079;-77
2022/11/27 10:57:52;;;;;;;26.35;16.98;;;;;;;;;;5077016;28;20493;-76
2022/11/27 11:00:22;;;;;;;24.58;16.92;;;;;;;;;;5077035;28;20431;-75
2022/11/27 11:02:47;;;;;;;23.65;15.60;;;;;;;;;;5095084;28;20114;-76
2022/11/27 11:05:13;;;;;;;24.38;15.15;;;;;;;;;;5094953;28;20062;-77
2022/11/27 11:07:38;;;;;;;21.42;13.23;;;;;;;;;;5094884;28;20115;-78
2022/11/27 11:10:17;;;;;;;17.38;11.68;;;;;;;;;;5094810;28;20028;-77
2022/11/27 11:12:42;;;;;;;18.42;12.18;;;;;;;;;;5094552;28;20155;-77
2022/11/27 11:15:11;;;;;;;16.67;12.00;;;;;;;;;;5094854;28;20099;-78
2022/11/27 11:17:37;;;;;;;22.50;14.13;;;;;;;;;;5094488;28;20032;-76
2022/11/27 11:20:19;;;;;;;19.58;13.45;;;;;;;;;;5076298;28;20035;-79
2022/11/27 11:22:57;;;;;;;18.38;11.85;;;;;;;;;;5101059;22;20032;-77
2022/11/27 11:25:22;;;;;;;17.50;12.02;;;;;;;;;;5032693;28;20045;-76
2022/11/27 11:27:49;;;;;;;22.02;14.82;;;;;;;;;;5034288;28;20029;-77
2022/11/27 11:30:21;;;;;;;22.95;14.32;;;;;;;;;;5016740;28;20041;-77
2022/11/27 11:32:48;;;;;;;21.75;13.45;;;;;;;;;;5015612;28;20033;-76
2022/11/27 11:35:22;;;;;;;15.82;10.70;;;;;;;;;;5034246;28;20519;-77
2022/11/27 11:37:48;;;;;;;18.02;11.68;;;;;;;;;;5034473;28;20018;-75
2022/11/27 11:40:13;;;;;;;16.73;11.27;;;;;;;;;;5033866;28;20017;-77
2022/11/27 11:42:57;;;;;;;12.23;9.55;;;;;;;;;;5034141;28;20033;-76
2022/11/27 11:45:23;;;;;;;13.15;9.38;;;;;;;;;;5034097;28;20040;-78
2022/11/27 11:47:50;;;;;;;12.05;9.45;;;;;;;;;;5033936;28;20017;-77
2022/11/27 11:50:31;;;;;;;14.20;10.88;;;;;;;;;;5016757;28;20037;-77
2022/11/27 11:52:56;;;;;;;;;;;;;;;;;;5034317;28;20049;-78
2022/11/27 11:55:26;;;;;;;16.23;12.53;;;;;;;;;;5016034;28;20351;-75
2022/11/27 11:58:10;;;;;;;18.33;12.32;;;;;;;;;;5034210;28;20029;-76
2022/11/27 12:00:46;;;;;;;20.20;12.30;;;;;;;;;;5033846;28;20033;-77
2022/11/27 12:03:12;;;;;;;21.98;13.85;;;;;;;;;;5033850;28;20034;-77
2022/11/27 12:05:58;;;;;;;17.98;12.70;;;;;;;;;;5033820;28;20032;-76
2022/11/27 12:08:30;;;;;;;19.63;12.45;;;;;;;;;;5033747;28;20475;-77
2022/11/27 12:11:15;;;;;;;24.48;16.65;;;;;;;;;;5032673;28;20036;-77
2022/11/27 12:13:52;;;;;;;24.20;16.48;;;;;;;;;;5033519;28;20057;-77
2022/11/27 12:16:36;;;;;;;20.65;14.23;;;;;;;;;;5033506;28;20018;-77
2022/11/27 12:19:31;;;;;;;23.05;15.13;;;;;;;;;;5032857;28;20033;-78
2022/11/27 12:22:03;;;;;;;20.00;12.90;;;;;;;;;;5033744;28;20379;-76
2022/11/27 12:24:28;;;;;;;43.47;22.27;;;;;;;;;;5032149;28;20053;-77
2022/11/27 12:27:01;;;;;;;28.92;17.85;;;;;;;;;;5032561;28;20109;-78
2022/11/27 12:29:45;;;;;;;22.52;14.80;;;;;;;;;;5033618;28;20479;-79
2022/11/27 12:32:16;;;;;;;17.73;12.15;;;;;;;;;;5033629;28;20443;-78
2022/11/27 12:34:42;;;;;;;19.88;12.50;;;;;;;;;;5033604;28;20018;-77
2022/11/27 12:37:19;;;;;;;19.77;13.00;;;;;;;;;;5032055;28;20022;-77
2022/11/27 12:39:45;;;;;;;18.48;12.95;;;;;;;;;;5032387;28;20037;-77
2022/11/27 12:42:28;;;;;;;16.58;12.13;;;;;;;;;;5033839;28;20109;-77
2022/11/27 12:44:59;;;;;;;21.30;12.68;;;;;;;;;;5036728;28;20116;-77
2022/11/27 12:47:35;;;;;;;17.83;12.27;;;;;;;;;;5019784;28;20505;-77
2022/11/27 12:50:09;;;;;;;18.08;13.13;;;;;;;;;;5036984;28;20041;-77
2022/11/27 12:52:39;;;;;;;24.80;14.63;;;;;;;;;;5036415;28;20445;-77
2022/11/27 12:55:11;;;;;;;19.25;12.40;;;;;;;;;;5019374;28;20036;-78
2022/11/27 12:57:42;;;;;;;20.15;13.77;;;;;;;;;;5036943;28;20087;-74
2022/11/27 13:00:19;;;;;;;293.30;143.52;;;;;;;;;;5037119;28;20452;-78
2022/11/27 13:02:55;;;;;;;65.97;38.72;;;;;;;;;;5037356;28;20065;-77
2022/11/27 13:05:48;;;;;;;24.77;16.58;;;;;;;;;;5036804;28;20037;-77
2022/11/27 13:08:16;;;;;;;21.95;13.95;;;;;;;;;;5032721;28;20072;-75
2022/11/27 13:10:59;;;;;;;43.15;24.77;;;;;;;;;;5036700;28;20053;-76
2022/11/27 13:13:30;;;;;;;22.67;15.23;;;;;;;;;;5019013;28;20034;-76
2022/11/27 13:16:19;;;;;;;54.88;33.85;;;;;;;;;;5036824;28;20485;-76
2022/11/27 13:19:22;;;;;;;24.17;15.38;;;;;;;;;;5036857;28;20109;-78
2022/11/27 13:21:48;;;;;;;27.20;16.50;;;;;;;;;;4940611;29;20072;-76
2022/11/27 13:24:14;;;;;;;41.08;23.48;;;;;;;;;;4956246;29;20055;-76
2022/11/27 13:26:46;;;;;;;30.65;20.73;;;;;;;;;;4976839;28;20092;-78
2022/11/27 13:29:24;;;;;;;50.05;31.40;;;;;;;;;;5035421;28;20091;-78
2022/11/27 13:31:52;;;;;;;125.88;74.97;;;;;;;;;;5018917;28;20068;-75
2022/11/27 13:34:20;;;;;;;63.53;49.83;;;;;;;;;;5036351;28;20135;-78
2022/11/27 13:36:53;;;;;;;35.15;26.08;;;;;;;;;;5036204;28;20036;-74
2022/11/27 13:39:35;;;;;;;29.08;19.70;;;;;;;;;;5036701;28;20478;-78
2022/11/27 13:42:16;;;;;;;36.13;22.23;;;;;;;;;;5036649;28;20057;-78
2022/11/27 13:44:42;;;;;;;204.73;95.53;;;;;;;;;;5036121;28;20033;-78
2022/11/27 13:47:09;;;;;;;127.45;66.68;;;;;;;;;;5036013;28;20033;-76
2022/11/27 13:49:36;;;;;;;47.17;26.65;;;;;;;;;;5035898;28;20069;-75
2022/11/27 13:52:22;;;;;;;28.10;17.92;;;;;;;;;;5036225;28;20124;-74
2022/11/27 13:54:55;;;;;;;13.98;10.15;;;;;;;;;;5017289;28;20510;-75
2022/11/27 13:57:21;;;;;;;14.35;10.63;;;;;;;;;;5036154;28;20044;-77
2022/11/27 13:59:58;;;;;;;20.23;13.75;;;;;;;;;;5018081;28;20029;-76
2022/11/27 14:02:23;;;;;;;17.83;13.23;;;;;;;;;;5036066;28;20029;-77
2022/11/27 14:04:50;;;;;;;17.35;13.00;;;;;;;;;;5054195;22;20048;-71
2022/11/27 14:07:16;;;;;;;21.60;14.25;;;;;;;;;;5073109;28;20114;-72
2022/11/27 14:09:44;;;;;;;22.15;14.15;;;;;;;;;;5076041;28;20068;-72
2022/11/27 14:12:21;;;;;;;20.27;12.52;;;;;;;;;;5057531;28;20067;-72
2022/11/27 14:15:16;;;;;;;19.75;12.70;;;;;;;;;;5075427;28;20036;-71
2022/11/27 14:17:42;;;;;;;17.15;12.77;;;;;;;;;;5044550;28;20048;-72
2022/11/27 14:20:26;;;;;;;18.77;12.80;;;;;;;;;;5057525;28;20025;-72
2022/11/27 14:22:52;;;;;;;18.48;12.85;;;;;;;;;;5057771;28;20087;-72
2022/11/27 14:25:18;;;;;;;19.27;14.00;;;;;;;;;;5075239;28;20439;-71
2022/11/27 14:27:44;;;;;;;19.67;13.85;;;;;;;;;;5075097;28;20072;-72